createdAt,value
2019-04-05T00:01:22.277Z,85.70
2019-04-05T00:03:50.976Z,85.70
2019-04-05T00:06:19.301Z,85.70
2019-04-05T00:08:47.795Z,85.80
2019-04-05T00:11:16.490Z,86.00
2019-04-05T00:13:44.823Z,85.80
2019-04-05T00:16:13.378Z,86.10
2019-04-05T00:18:41.881Z,86.40
2019-04-05T00:21:10.214Z,86.40
2019-04-05T00:23:38.634Z,87.00
2019-04-05T00:26:06.953Z,87.50
2019-04-05T00:28:35.287Z,87.50
2019-04-05T00:31:03.605Z,87.60
2019-04-05T00:33:31.947Z,87.70
2019-04-05T00:36:00.266Z,87.70
2019-04-05T00:38:28.751Z,88.00
2019-04-05T00:40:57.133Z,87.90
2019-04-05T00:43:25.709Z,88.00
2019-04-05T00:45:54.260Z,88.00
2019-04-05T00:48:22.589Z,88.00
2019-04-05T00:50:51.039Z,88.20
2019-04-05T00:53:19.550Z,88.20
2019-04-05T00:55:47.864Z,88.00
2019-04-05T00:58:16.533Z,88.20
2019-04-05T01:00:44.935Z,88.00
2019-04-05T01:03:13.409Z,88.20
2019-04-05T01:05:42.012Z,87.90
2019-04-05T01:08:10.319Z,88.00
2019-04-05T01:10:38.732Z,88.00
2019-04-05T01:13:07.040Z,87.90
2019-04-05T01:15:41.091Z,87.90
2019-04-05T01:18:05.805Z,87.90
2019-04-05T01:20:40.309Z,88.00
2019-04-05T01:23:08.713Z,87.70
2019-04-05T01:25:37.135Z,87.70
2019-04-05T01:28:05.574Z,87.70
2019-04-05T01:30:34.217Z,87.90
2019-04-05T01:33:02.604Z,87.70
2019-04-05T01:35:30.946Z,87.50
2019-04-05T01:37:59.264Z,87.50
2019-04-05T01:40:28.667Z,87.60
2019-04-05T01:42:57.056Z,87.60
2019-04-05T01:45:25.572Z,87.60
2019-04-05T01:47:53.887Z,87.50
2019-04-05T01:50:22.197Z,87.30
2019-04-05T01:52:50.636Z,87.20
2019-04-05T01:55:19.044Z,87.10
2019-04-05T01:57:47.381Z,87.20
2019-04-05T02:00:15.713Z,87.30
2019-04-05T02:02:44.242Z,87.00
2019-04-05T02:05:13.976Z,86.80
2019-04-05T02:07:42.318Z,86.80
2019-04-05T02:10:10.803Z,86.60
2019-04-05T02:12:39.133Z,87.00
2019-04-05T02:15:07.524Z,87.50
2019-04-05T02:17:36.183Z,87.00
2019-04-05T02:20:08.951Z,86.70
2019-04-05T02:22:37.413Z,86.10
2019-04-05T02:25:06.236Z,86.10
2019-04-05T02:27:34.725Z,85.90
2019-04-05T02:30:03.617Z,85.90
2019-04-05T02:32:31.955Z,86.00
2019-04-05T02:35:00.522Z,86.10
2019-04-05T02:37:28.857Z,86.90
2019-04-05T02:39:57.253Z,87.40
2019-04-05T02:42:25.594Z,86.30
2019-04-05T02:44:53.912Z,86.10
2019-04-05T02:47:22.426Z,86.00
2019-04-05T02:49:50.758Z,86.10
2019-04-05T02:52:19.089Z,85.70
2019-04-05T02:54:47.489Z,85.80
2019-04-05T02:57:15.821Z,85.80
2019-04-05T02:59:44.420Z,85.80
2019-04-05T03:02:12.990Z,85.70
2019-04-05T03:04:41.564Z,85.80
2019-04-05T03:07:09.939Z,85.50
2019-04-05T03:09:38.338Z,86.40
2019-04-05T03:12:06.679Z,85.50
2019-04-05T03:14:35.205Z,85.70
2019-04-05T03:17:03.873Z,85.70
2019-04-05T03:19:32.695Z,85.70
2019-04-05T03:22:02.820Z,85.70
2019-04-05T03:24:31.171Z,85.70
2019-04-05T03:27:01.894Z,85.40
2019-04-05T03:29:30.228Z,85.60
2019-04-05T03:31:58.667Z,85.70
2019-04-05T03:34:27.389Z,85.60
2019-04-05T03:36:55.955Z,85.50
2019-04-05T03:39:24.506Z,85.40
2019-04-05T03:41:53.472Z,85.60
2019-04-05T03:44:23.068Z,84.90
2019-04-05T03:46:57.093Z,84.70
2019-04-05T03:49:22.422Z,85.80
2019-04-05T03:51:51.156Z,85.00
2019-04-05T03:54:19.816Z,85.10
2019-04-05T03:56:48.319Z,84.40
2019-04-05T03:59:16.802Z,84.70
2019-04-05T04:01:45.478Z,84.70
2019-04-05T04:04:13.867Z,84.70
2019-04-05T04:06:42.202Z,84.90
2019-04-05T04:09:10.790Z,85.00
2019-04-05T04:11:39.205Z,84.90
2019-04-05T04:14:07.858Z,84.90
2019-04-05T04:16:36.522Z,84.70
2019-04-05T04:19:05.144Z,84.90
2019-04-05T04:21:42.332Z,84.90
2019-04-05T04:24:10.691Z,84.90
2019-04-05T04:26:39.236Z,84.90
2019-04-05T04:29:07.859Z,84.80
2019-04-05T04:31:36.419Z,85.00
2019-04-05T04:34:05.605Z,85.10
2019-04-05T04:36:34.019Z,84.80
2019-04-05T04:39:05.296Z,85.00
2019-04-05T04:41:33.727Z,84.90
2019-04-05T04:44:02.314Z,85.00
2019-04-05T04:46:30.717Z,85.30
2019-04-05T04:48:59.328Z,85.20
2019-04-05T04:51:27.903Z,85.00
2019-04-05T04:53:56.467Z,85.10
2019-04-05T04:56:25.059Z,85.10
2019-04-05T04:58:53.579Z,84.90
2019-04-05T05:01:22.110Z,85.00
2019-04-05T05:03:50.791Z,85.00
2019-04-05T05:06:19.113Z,85.00
2019-04-05T05:08:47.453Z,85.20
2019-04-05T05:11:18.834Z,85.00
2019-04-05T05:13:47.177Z,85.00
2019-04-05T05:16:15.849Z,84.20
2019-04-05T05:18:44.281Z,84.40
2019-04-05T05:21:12.780Z,85.20
2019-04-05T05:23:41.357Z,85.50
2019-04-05T05:26:09.980Z,86.10
2019-04-05T05:28:38.545Z,85.40
2019-04-05T05:31:06.887Z,85.10
2019-04-05T05:33:35.309Z,85.20
2019-04-05T05:36:03.752Z,85.80
2019-04-05T05:38:32.262Z,85.60
2019-04-05T05:41:01.122Z,85.80
2019-04-05T05:43:29.622Z,85.30
2019-04-05T05:45:58.211Z,85.20
2019-04-05T05:48:26.546Z,85.20
2019-04-05T05:50:55.456Z,85.90
2019-04-05T05:53:23.856Z,85.60
2019-04-05T05:55:52.417Z,86.40
2019-04-05T05:58:20.760Z,85.30
2019-04-05T06:00:49.082Z,84.90
2019-04-05T06:03:17.637Z,84.70
2019-04-05T06:05:46.204Z,85.00
2019-04-05T06:08:14.928Z,84.80
2019-04-05T06:10:43.272Z,84.40
2019-04-05T06:13:11.596Z,84.30
2019-04-05T06:15:40.280Z,83.80
2019-04-05T06:18:11.989Z,84.60
2019-04-05T06:20:38.734Z,84.90
2019-04-05T06:23:07.242Z,84.50
2019-04-05T06:25:35.748Z,84.40
2019-04-05T06:28:04.685Z,84.70
2019-04-05T06:30:33.193Z,85.10
2019-04-05T06:33:01.529Z,85.30
2019-04-05T06:35:29.910Z,85.30
2019-04-05T06:37:58.389Z,85.30
2019-04-05T06:40:39.702Z,85.80
2019-04-05T06:42:56.937Z,86.10
2019-04-05T06:45:25.449Z,86.10
2019-04-05T06:47:53.939Z,85.50
2019-04-05T06:50:22.436Z,85.30
2019-04-05T06:52:50.928Z,85.30
2019-04-05T06:55:19.416Z,85.60
2019-04-05T06:57:48.022Z,85.60
2019-04-05T07:00:18.052Z,85.40
2019-04-05T07:02:46.630Z,85.60
2019-04-05T07:05:15.340Z,85.30
2019-04-05T07:07:43.925Z,85.50
2019-04-05T07:10:12.464Z,86.10
2019-04-05T07:12:40.799Z,86.10
2019-04-05T07:15:09.384Z,86.10
2019-04-05T07:17:37.712Z,86.70
2019-04-05T07:20:06.179Z,87.40
2019-04-05T07:22:39.214Z,87.80
2019-04-05T07:25:05.955Z,87.80
2019-04-05T07:27:34.840Z,88.00
2019-04-05T07:30:05.137Z,87.80
2019-04-05T07:32:33.522Z,87.60
2019-04-05T07:35:01.843Z,88.20
2019-04-05T07:37:30.537Z,87.60
2019-04-05T07:39:59.153Z,87.30
2019-04-05T07:42:27.770Z,86.90
2019-04-05T07:44:56.237Z,86.60
2019-04-05T07:47:24.673Z,86.60
2019-04-05T07:49:53.248Z,86.70
2019-04-05T07:52:22.141Z,87.30
2019-04-05T07:54:50.471Z,87.60
2019-04-05T07:57:18.794Z,87.70
2019-04-05T07:59:47.283Z,87.40
2019-04-05T08:02:15.882Z,86.60
2019-04-05T08:04:44.222Z,85.20
2019-04-05T08:07:12.565Z,84.30
2019-04-05T08:09:40.979Z,83.80
2019-04-05T08:12:09.466Z,83.50
2019-04-05T08:14:37.837Z,83.30
2019-04-05T08:17:06.399Z,82.30
2019-04-05T08:19:34.978Z,82.00
2019-04-05T08:22:03.292Z,80.90
2019-04-05T08:24:31.703Z,80.10
2019-04-05T08:27:00.031Z,80.00
2019-04-05T08:29:28.368Z,80.70
2019-04-05T08:31:56.735Z,80.30
2019-04-05T08:34:25.237Z,79.80
2019-04-05T08:36:53.799Z,79.10
2019-04-05T08:39:22.153Z,79.50
2019-04-05T08:41:50.484Z,79.50
2019-04-05T08:44:19.085Z,79.40
2019-04-05T08:46:47.646Z,80.00
2019-04-05T08:49:16.229Z,78.90
2019-04-05T08:51:44.633Z,79.20
2019-04-05T08:54:13.131Z,79.10
2019-04-05T08:56:41.476Z,77.20
2019-04-05T08:59:09.814Z,77.00
2019-04-05T09:01:38.215Z,75.80
2019-04-05T09:04:06.654Z,77.00
2019-04-05T09:06:35.311Z,77.30
2019-04-05T09:09:06.010Z,77.20
2019-04-05T09:11:34.413Z,77.20
2019-04-05T09:14:02.915Z,77.00
2019-04-05T09:16:31.500Z,76.50
2019-04-05T09:18:59.981Z,75.90
2019-04-05T09:21:28.413Z,75.00
2019-04-05T09:23:59.276Z,72.70
2019-04-05T09:26:27.217Z,71.80
2019-04-05T09:28:55.778Z,70.40
2019-04-05T09:31:24.113Z,70.80
2019-04-05T09:33:52.683Z,70.30
2019-04-05T09:36:21.006Z,71.00
2019-04-05T09:38:49.578Z,70.20
2019-04-05T09:41:17.980Z,70.70
2019-04-05T09:43:46.388Z,70.70
2019-04-05T09:46:14.811Z,70.60
2019-04-05T09:48:43.466Z,70.90
2019-04-05T09:51:11.786Z,71.80
2019-04-05T09:53:40.293Z,72.20
2019-04-05T09:56:08.658Z,72.40
2019-04-05T09:58:37.011Z,72.40
2019-04-05T10:01:05.618Z,72.80
2019-04-05T10:03:33.967Z,73.00
2019-04-05T10:06:02.360Z,73.30
2019-04-05T10:08:30.957Z,73.80
2019-04-05T10:10:59.473Z,74.70
2019-04-05T10:13:27.818Z,75.50
2019-04-05T10:15:56.316Z,74.70
2019-04-05T10:18:24.669Z,74.40
2019-04-05T10:20:53.015Z,74.90
2019-04-05T10:23:21.509Z,75.00
2019-04-05T10:25:50.015Z,75.00
2019-04-05T10:28:18.343Z,74.60
2019-04-05T10:30:47.021Z,75.10
2019-04-05T10:33:15.343Z,73.60
2019-04-05T10:35:43.754Z,74.00
2019-04-05T10:38:12.310Z,74.10
2019-04-05T10:40:40.808Z,73.90
2019-04-05T10:43:09.292Z,73.60
2019-04-05T10:45:37.826Z,73.00
2019-04-05T10:48:06.150Z,72.80
2019-04-05T10:50:34.898Z,72.20
2019-04-05T10:53:03.391Z,72.20
2019-04-05T10:55:32.107Z,71.80
2019-04-05T10:58:00.431Z,71.30
2019-04-05T11:00:28.829Z,71.10
2019-04-05T11:02:57.322Z,71.40
2019-04-05T11:05:25.911Z,71.00
2019-04-05T11:07:54.525Z,71.40
2019-04-05T11:10:22.921Z,71.40
2019-04-05T11:12:51.439Z,70.80
2019-04-05T11:15:20.132Z,70.00
2019-04-05T11:17:48.692Z,70.10
2019-04-05T11:20:24.082Z,69.40
2019-04-05T11:22:50.227Z,69.30
2019-04-05T11:25:20.488Z,69.30
2019-04-05T11:27:47.663Z,70.00
2019-04-05T11:30:19.419Z,70.00
2019-04-05T11:32:47.760Z,69.70
2019-04-05T11:35:16.169Z,69.40
2019-04-05T11:37:44.535Z,69.20
2019-04-05T11:40:12.943Z,69.30
2019-04-05T11:42:41.448Z,69.40
2019-04-05T11:45:09.914Z,69.70
2019-04-05T11:47:38.624Z,69.80
2019-04-05T11:50:10.431Z,69.30
2019-04-05T11:52:39.393Z,69.00
2019-04-05T11:55:08.102Z,68.80
2019-04-05T11:57:36.420Z,68.00
2019-04-05T12:00:14.215Z,66.90
2019-04-05T12:02:44.541Z,66.60
2019-04-05T12:05:14.597Z,66.10
2019-04-05T12:07:43.090Z,66.20
2019-04-05T12:10:11.695Z,65.10
2019-04-05T12:12:40.174Z,65.30
2019-04-05T12:15:08.593Z,65.20
2019-04-05T12:17:36.962Z,65.40
2019-04-05T12:20:08.929Z,65.40
2019-04-05T12:22:37.294Z,64.80
2019-04-05T12:25:06.729Z,63.80
2019-04-05T12:27:35.143Z,63.50
2019-04-05T12:30:05.175Z,58.60
2019-04-05T12:32:40.701Z,56.50
2019-04-05T12:35:08.218Z,54.40
2019-04-05T12:37:35.823Z,53.00
2019-04-05T12:40:09.551Z,52.80
2019-04-05T12:42:36.520Z,53.20
2019-04-05T12:45:08.058Z,53.60
2019-04-05T12:47:36.614Z,55.40
2019-04-05T12:50:06.577Z,55.80
2019-04-05T12:52:35.087Z,55.70
2019-04-05T12:55:03.480Z,56.20
2019-04-05T12:57:32.207Z,55.60
2019-04-05T13:00:00.536Z,55.70
2019-04-05T13:02:33.843Z,55.70
2019-04-05T13:04:59.105Z,54.20
2019-04-05T13:07:27.622Z,53.50
2019-04-05T13:09:55.955Z,54.10
2019-04-05T13:12:26.473Z,55.70
2019-04-05T13:14:59.599Z,55.70
2019-04-05T13:17:24.989Z,55.90
2019-04-05T13:19:53.315Z,56.30
2019-04-05T13:22:23.724Z,55.00
2019-04-05T13:24:52.251Z,53.70
2019-04-05T13:27:20.579Z,51.40
2019-04-05T13:29:49.656Z,48.90
2019-04-05T13:32:21.614Z,48.90
2019-04-05T13:34:48.076Z,50.80
2019-04-05T13:37:20.469Z,52.80
2019-04-05T13:39:46.891Z,54.60
2019-04-05T13:42:15.318Z,56.40
2019-04-05T13:44:43.658Z,57.80
2019-04-05T13:47:12.212Z,58.50
2019-04-05T13:49:41.310Z,60.80
2019-04-05T13:52:11.997Z,61.10
2019-04-05T13:54:40.950Z,62.00
2019-04-05T13:57:11.376Z,62.80
2019-04-05T13:59:39.789Z,62.70
2019-04-05T14:02:08.145Z,63.20
2019-04-05T14:04:36.661Z,63.30
2019-04-05T14:07:05.186Z,63.90
2019-04-05T14:09:33.903Z,64.00
2019-04-05T14:12:02.239Z,64.10
2019-04-05T14:14:30.863Z,63.30
2019-04-05T14:16:59.435Z,63.00
2019-04-05T14:19:28.971Z,62.80
2019-04-05T14:22:07.808Z,62.50
2019-04-05T14:24:27.722Z,62.80
2019-04-05T14:26:56.236Z,62.20
2019-04-05T14:29:24.587Z,62.70
2019-04-05T14:31:53.306Z,63.40
2019-04-05T14:34:23.731Z,63.10
2019-04-05T14:36:52.433Z,63.40
2019-04-05T14:39:21.455Z,63.40
2019-04-05T14:41:49.953Z,63.10
2019-04-05T14:44:18.290Z,63.70
2019-04-05T14:46:46.881Z,64.00
2019-04-05T14:49:15.392Z,64.70
2019-04-05T14:51:53.787Z,64.90
2019-04-05T14:54:14.350Z,64.90
2019-04-05T14:56:42.762Z,64.30
2019-04-05T14:59:11.229Z,63.80
2019-04-05T15:01:39.817Z,64.00
2019-04-05T15:04:08.186Z,64.10
2019-04-05T15:06:36.558Z,64.50
2019-04-05T15:09:06.266Z,63.70
2019-04-05T15:11:34.611Z,63.80
2019-04-05T15:14:03.082Z,63.50
2019-04-05T15:16:31.679Z,63.70
2019-04-05T15:19:00.207Z,63.70
2019-04-05T15:21:29.232Z,63.80
2019-04-05T15:23:57.657Z,64.00
2019-04-05T15:26:26.258Z,63.70
2019-04-05T15:28:55.699Z,63.60
2019-04-05T15:31:26.483Z,63.30
2019-04-05T15:33:55.621Z,62.90
2019-04-05T15:36:24.566Z,62.50
2019-04-05T15:38:53.097Z,63.10
2019-04-05T15:41:22.016Z,64.10
2019-04-05T15:43:50.578Z,65.00
2019-04-05T15:46:18.986Z,65.20
2019-04-05T15:48:47.499Z,65.50
2019-04-05T15:51:16.099Z,66.10
2019-04-05T15:53:44.742Z,66.60
2019-04-05T15:56:13.233Z,66.80
2019-04-05T15:58:41.781Z,67.40
2019-04-05T16:01:10.437Z,67.90
2019-04-05T16:03:38.994Z,68.30
2019-04-05T16:06:07.466Z,68.60
2019-04-05T16:08:35.981Z,68.90
2019-04-05T16:11:04.922Z,68.60
2019-04-05T16:13:33.352Z,68.60
2019-04-05T16:16:01.697Z,68.50
2019-04-05T16:18:30.095Z,68.50
2019-04-05T16:20:58.425Z,68.50
2019-04-05T16:23:26.755Z,68.90
2019-04-05T16:25:55.662Z,68.60
2019-04-05T16:28:24.158Z,67.40
2019-04-05T16:30:52.574Z,66.50
2019-04-05T16:33:21.093Z,66.80
2019-04-05T16:35:49.513Z,66.90
2019-04-05T16:38:18.012Z,67.20
2019-04-05T16:40:46.899Z,67.50
2019-04-05T16:43:15.651Z,66.50
2019-04-05T16:45:44.336Z,65.30
2019-04-05T16:48:13.239Z,65.60
2019-04-05T16:50:42.409Z,66.20
2019-04-05T16:53:11.074Z,66.50
2019-04-05T16:55:39.637Z,66.50
2019-04-05T16:58:08.219Z,66.50
2019-04-05T17:00:36.920Z,65.50
2019-04-05T17:03:05.568Z,66.30
2019-04-05T17:05:34.245Z,66.60
2019-04-05T17:08:02.639Z,66.60
2019-04-05T17:10:32.990Z,67.00
2019-04-05T17:13:01.336Z,67.60
2019-04-05T17:15:29.726Z,68.30
2019-04-05T17:17:58.485Z,68.60
2019-04-05T17:20:27.594Z,68.60
2019-04-05T17:22:58.528Z,69.10
2019-04-05T17:25:26.359Z,69.50
2019-04-05T17:27:54.943Z,70.40
2019-04-05T17:30:23.672Z,71.00
2019-04-05T17:32:52.234Z,71.70
2019-04-05T17:35:20.777Z,71.50
2019-04-05T17:37:49.278Z,71.90
2019-04-05T17:40:17.971Z,72.30
2019-04-05T17:42:46.861Z,72.70
2019-04-05T17:45:15.242Z,73.30
2019-04-05T17:47:43.953Z,72.90
2019-04-05T17:50:12.391Z,73.80
2019-04-05T17:52:41.354Z,73.00
2019-04-05T17:55:09.850Z,73.20
2019-04-05T17:57:38.424Z,73.50
2019-04-05T18:00:09.255Z,74.00
2019-04-05T18:02:37.652Z,74.30
2019-04-05T18:05:06.813Z,74.70
2019-04-05T18:07:35.129Z,75.10
2019-04-05T18:10:04.612Z,76.00
2019-04-05T18:12:33.095Z,76.50
2019-04-05T18:15:02.609Z,76.90
2019-04-05T18:17:31.011Z,77.20
2019-04-05T18:20:01.633Z,77.40
2019-04-05T18:22:30.179Z,77.70
2019-04-05T18:24:58.824Z,77.40
2019-04-05T18:27:27.425Z,77.60
2019-04-05T18:29:55.873Z,78.10
2019-04-05T18:32:25.514Z,78.30
2019-04-05T18:34:53.914Z,78.40
2019-04-05T18:37:22.331Z,78.60
2019-04-05T18:39:50.830Z,79.00
2019-04-05T18:42:19.186Z,79.20
2019-04-05T18:44:47.759Z,79.60
2019-04-05T18:47:16.359Z,79.60
2019-04-05T18:49:44.897Z,79.80
2019-04-05T18:52:13.660Z,80.30
2019-04-05T18:54:42.326Z,80.60
2019-04-05T18:57:10.689Z,80.60
2019-04-05T18:59:39.426Z,80.70
2019-04-05T19:02:08.037Z,80.60
2019-04-05T19:04:36.524Z,80.90
2019-04-05T19:07:04.949Z,81.00
2019-04-05T19:09:33.310Z,81.70
2019-04-05T19:12:02.246Z,81.50
2019-04-05T19:14:30.591Z,82.70
2019-04-05T19:16:59.463Z,81.60
2019-04-05T19:19:28.402Z,81.60
2019-04-05T19:21:56.952Z,81.60
2019-04-05T19:24:25.741Z,81.90
2019-04-05T19:26:54.224Z,82.20
2019-04-05T19:29:22.949Z,82.20
2019-04-05T19:49:22.127Z,83.60
2019-04-05T19:51:50.684Z,84.10
2019-04-05T19:54:19.329Z,83.80
2019-04-05T19:56:47.881Z,83.20
2019-04-05T19:59:16.236Z,83.30
2019-04-05T20:01:44.871Z,83.80
2019-04-05T20:04:13.393Z,83.90
2019-04-05T20:06:41.834Z,84.20
2019-04-05T20:09:10.231Z,84.70
2019-04-05T20:11:38.636Z,85.10
2019-04-05T20:14:07.050Z,85.50
2019-04-05T20:16:35.828Z,85.60
2019-04-05T20:19:04.267Z,86.10
2019-04-05T20:21:32.957Z,86.10
2019-04-05T20:24:09.429Z,85.60
2019-04-05T20:26:31.588Z,86.10
2019-04-05T20:29:00.028Z,86.30
2019-04-05T20:31:28.497Z,86.80
2019-04-05T20:33:57.138Z,87.20
2019-04-05T20:36:25.664Z,87.30
2019-04-05T20:38:54.369Z,87.30
2019-04-05T20:41:22.854Z,87.60
2019-04-05T20:43:51.263Z,87.30
2019-04-05T20:46:19.727Z,86.70
2019-04-05T20:48:48.073Z,87.00
2019-04-05T20:51:16.490Z,87.30
2019-04-05T20:53:44.907Z,87.50
2019-04-05T20:56:13.325Z,87.70
2019-04-05T20:58:41.733Z,87.50
2019-04-05T21:01:10.289Z,87.20
2019-04-05T21:03:38.621Z,86.70
2019-04-05T21:06:26.949Z,86.20
2019-04-05T21:08:55.294Z,86.30
2019-04-05T21:11:24.114Z,86.60
2019-04-05T21:13:52.727Z,86.10
2019-04-05T21:16:21.183Z,86.10
2019-04-05T21:18:49.701Z,86.10
2019-04-05T21:21:18.241Z,86.10
2019-04-05T21:23:46.662Z,86.10
2019-04-05T21:26:15.068Z,86.60
2019-04-05T21:28:43.419Z,86.60
2019-04-05T21:31:11.969Z,86.70
2019-04-05T21:33:40.302Z,86.90
2019-04-05T21:36:08.728Z,86.80
2019-04-05T21:38:37.119Z,86.40
2019-04-05T21:41:05.456Z,86.90
2019-04-05T21:43:33.775Z,86.70
2019-04-05T21:46:02.345Z,86.30
2019-04-05T21:48:30.809Z,86.00
2019-04-05T21:50:59.212Z,85.70
2019-04-05T21:53:27.519Z,85.20
2019-04-05T21:55:56.192Z,84.90
2019-04-05T21:58:25.952Z,84.60
2019-04-05T22:00:58.805Z,84.40
2019-04-05T22:03:27.517Z,84.20
2019-04-05T22:05:56.687Z,84.20
2019-04-05T22:08:25.186Z,84.40
2019-04-05T22:10:53.540Z,84.30
2019-04-05T22:13:21.858Z,84.50
2019-04-05T22:15:50.186Z,84.60
2019-04-05T22:18:18.674Z,84.70
2019-04-05T22:20:47.189Z,84.40
2019-04-05T22:23:15.852Z,84.20
2019-04-05T22:25:44.166Z,84.20
2019-04-05T22:28:12.503Z,84.10
2019-04-05T22:30:40.826Z,84.20
2019-04-05T22:33:09.382Z,84.10
2019-04-05T22:35:37.704Z,84.10
2019-04-05T22:38:06.221Z,84.20
2019-04-05T22:40:34.699Z,84.10
2019-04-05T22:43:03.061Z,84.10
2019-04-05T22:45:31.380Z,83.80
2019-04-05T22:47:59.715Z,84.00
2019-04-05T22:50:28.206Z,84.20
2019-04-05T22:52:56.691Z,84.20
2019-04-05T22:55:25.018Z,84.20
2019-04-05T22:57:53.370Z,84.70
2019-04-05T23:00:22.154Z,84.80
2019-04-05T23:02:50.741Z,84.90
2019-04-05T23:05:19.223Z,84.40
2019-04-05T23:07:47.745Z,84.40
2019-04-05T23:10:16.242Z,84.10
2019-04-05T23:12:44.749Z,83.90
2019-04-05T23:15:13.214Z,83.90
2019-04-05T23:17:41.534Z,84.10
2019-04-05T23:20:10.134Z,84.30
2019-04-05T23:22:38.614Z,84.20
2019-04-05T23:25:07.868Z,84.10
2019-04-05T23:27:36.181Z,84.20
2019-04-05T23:30:06.193Z,84.40
2019-04-05T23:32:34.508Z,84.20
2019-04-05T23:35:02.857Z,84.20
2019-04-05T23:37:31.181Z,84.00
2019-04-05T23:39:59.526Z,84.10
2019-04-05T23:42:27.841Z,83.90
2019-04-05T23:44:56.183Z,83.80
2019-04-05T23:47:24.671Z,83.80
2019-04-05T23:49:53.258Z,84.00
2019-04-05T23:52:21.772Z,84.20
2019-04-05T23:54:50.277Z,84.10
2019-04-05T23:57:18.601Z,84.00
2019-04-05T23:59:47.110Z,83.90
